Terminal Aerodrome Forecast
Issued by NWS

Home | Current Version | Previous Version | Graphics & Text | Print | Product List | Glossary On
Versions: 1 2 3 4 5 6 7 8 9 10 11 12 13 14 15 16 17
184
FTUS43 KABR 211724
TAFPIR
TAF
KPIR 211724Z 2118/2218 12012G19KT P6SM BKN035
     FM220200 13010KT P6SM FEW150
     FM220500 13004KT P6SM FEW080
     FM221400 19005KT P6SM FEW080=

USA.gov is the U.S. government's official web portal to all federal, state and local government web resources and services.